This is the latest recevied weather packets stored in our database for station/object 1NW106. If no packets are shown the sender has not sent any weather packets the latest 10 day(s).
| Time | Temp. | Humidity | Pressure | Rain* | Wind** | Luminosity | Snow |
|---|---|---|---|---|---|---|---|
| 1788352907 | 23.33° C | 99% | 1006.4 hPa | 15.49 mm | - | - | - |
| 1788352307 | 23.89° C | 99% | 1005.5 hPa | 14.99 mm | - | - | - |
| 1788351707 | 23.89° C | 99% | 1004.6 hPa | 14.99 mm | - | - | - |
| 1788351107 | 23.89° C | 99% | 1004.4 hPa | 14.99 mm | - | - | - |
| 1788350507 | 23.89° C | 99% | 1004.3 hPa | 14.99 mm | - | - | - |
| 1788349907 | 23.89° C | 99% | 1004.2 hPa | 14.99 mm | - | - | - |
| 1788349307 | 23.89° C | 99% | 1004.1 hPa | 14.73 mm | - | - | - |
| 1788348707 | 24.44° C | 99% | 1004.2 hPa | 14.73 mm | - | - | - |
| 1788348107 | 24.44° C | 99% | 1004.3 hPa | 14.73 mm | - | - | - |
| 1788347507 | 24.44° C | 99% | 1004.2 hPa | 13.97 mm | - | - | - |
| 1788346907 | 24.44° C | 99% | 1003.9 hPa | 10.92 mm | - | - | - |
| 1788346307 | 25° C | 99% | 1005.3 hPa | 10.41 mm | - | - | - |
| 1788345707 | 27.78° C | 90% | 1007.9 hPa | 5.59 mm | - | - | - |
| 1788345107 | 28.89° C | 89% | 1007.6 hPa | 2.79 mm | - | - | - |
| 1788344507 | 29.44° C | 88% | 1007.6 hPa | 2.79 mm | - | - | - |
| 1788343907 | 29.44° C | 86% | 1007.7 hPa | 2.79 mm | - | - | - |
| 1788343307 | 30° C | 87% | 1007.7 hPa | 2.79 mm | - | - | - |
| 1788342708 | 30° C | 84% | 1007.9 hPa | 2.79 mm | - | - | - |
| 1788342107 | 30° C | 83% | 1007.9 hPa | 2.79 mm | - | - | - |
| 1788341507 | 30° C | 82% | 1008.1 hPa | 2.79 mm | - | - | - |
| 1788340907 | 30° C | 81% | 1008.4 hPa | 2.79 mm | - | - | - |
| 1788340307 | 30.56° C | 80% | 1008.5 hPa | 2.79 mm | - | - | - |
| 1788339707 | 30.56° C | 80% | 1008.5 hPa | 2.79 mm | - | - | - |
| 1788339107 | 30.56° C | 77% | 1008.6 hPa | 2.79 mm | - | - | - |
| 1788337907 | 31.11° C | 78% | 1008.8 hPa | 2.79 mm | - | - | - |
* Rain latest hour (hover to see other rain measurements)
** Current wind speed in m/s (hover to see current wind gust speed)